Time;durP1;ratioP1;P1;durP2;ratioP2;P2;SDS_P1;SDS_P2;PMS_P1;PMS_P2;Temp;Humidity;BMP_temperature;BMP_pressure;BME280_temperature;BME280_humidity;BME280_pressure;Samples;Min_cycle;Max_cycle;Signal;HPM_P1;HPM_P2
2023/08/19 15:17:43;;;;;;;6.72;2.10;;;27.60;1.00;;;;;;5023298;23;20591;-87
2023/08/19 15:20:09;;;;;;;4.75;1.83;;;27.60;1.00;;;;;;4957350;29;20219;-87
2023/08/19 15:22:35;;;;;;;4.85;1.80;;;27.70;1.00;;;;;;4931181;29;20177;-88
2023/08/19 15:25:00;;;;;;;4.10;1.83;;;27.70;1.00;;;;;;4943335;29;20589;-88
2023/08/19 15:27:26;;;;;;;3.47;1.60;;;27.50;1.00;;;;;;4943558;29;20180;-89
2023/08/19 15:29:54;;;;;;;4.95;1.75;;;27.70;1.00;;;;;;4952423;28;20222;-89
2023/08/19 15:32:21;;;;;;;3.67;1.60;;;27.90;1.00;;;;;;4931172;29;20267;-86
2023/08/19 15:34:47;;;;;;;4.15;1.90;;;28.10;99.90;;;;;;4924361;29;20293;-88
2023/08/19 15:37:15;;;;;;;3.80;1.58;;;28.20;99.90;;;;;;4928175;29;20169;-88
2023/08/19 15:39:44;;;;;;;4.70;1.70;;;28.20;99.90;;;;;;4925603;29;20565;-86
2023/08/19 15:42:12;;;;;;;3.75;1.40;;;28.00;99.90;;;;;;4938736;29;20688;-88
2023/08/19 15:44:38;;;;;;;4.05;1.75;;;28.10;99.90;;;;;;4921208;29;20607;-87
2023/08/19 15:47:03;;;;;;;4.03;1.60;;;28.30;99.90;;;;;;4920856;29;20227;-87
2023/08/19 15:49:29;;;;;;;4.57;1.40;;;28.30;99.90;;;;;;4925331;29;20566;-87
2023/08/19 15:51:55;;;;;;;4.03;1.60;;;28.30;99.90;;;;;;4948099;29;20199;-88
2023/08/19 15:54:22;;;;;;;4.35;1.33;;;28.40;99.90;;;;;;4963665;29;20193;-87
2023/08/19 15:56:48;;;;;;;4.45;1.50;;;28.40;99.90;;;;;;4957709;28;20251;-90
2023/08/19 15:59:13;;;;;;;4.65;1.80;;;28.30;99.90;;;;;;4960201;28;20200;-88
2023/08/19 16:01:40;;;;;;;3.13;1.40;;;28.20;99.90;;;;;;4956481;28;20196;-88
2023/08/19 16:04:14;;;;;;;5.68;1.75;;;28.20;99.90;;;;;;4973434;28;20183;-89
2023/08/19 16:06:47;;;;;;;3.63;1.65;;;28.30;99.90;;;;;;4958240;29;20239;-88
2023/08/19 16:09:15;;;;;;;3.72;1.63;;;28.30;99.90;;;;;;4927789;29;20177;-86
2023/08/19 16:11:40;;;;;;;3.70;1.67;;;28.40;99.90;;;;;;4930355;29;20207;-88
2023/08/19 16:14:07;;;;;;;3.13;1.63;;;28.40;99.90;;;;;;4940451;29;20176;-89
2023/08/19 16:16:33;;;;;;;4.40;1.70;;;28.20;99.90;;;;;;4942386;29;20190;-86
2023/08/19 16:18:59;;;;;;;2.83;1.40;;;28.30;99.90;;;;;;4934617;29;20220;-87
2023/08/19 16:21:24;;;;;;;5.18;1.80;;;28.40;99.90;;;;;;4933202;29;20271;-89
2023/08/19 16:23:54;;;;;;;5.10;1.55;;;28.40;99.90;;;;;;4934880;29;20187;-88
2023/08/19 16:26:20;;;;;;;3.67;1.52;;;28.50;99.90;;;;;;4915495;29;20244;-88
2023/08/19 16:28:46;;;;;;;4.35;1.38;;;28.50;99.90;;;;;;4941834;29;20185;-88
2023/08/19 16:31:13;;;;;;;3.88;1.70;;;28.70;99.90;;;;;;4943525;29;20164;-86
2023/08/19 16:33:40;;;;;;;3.63;1.35;;;28.80;99.90;;;;;;4945788;29;20177;-88
2023/08/19 16:36:06;;;;;;;4.35;1.83;;;28.90;99.90;;;;;;4929242;29;20176;-88
2023/08/19 16:38:33;;;;;;;3.95;1.73;;;28.70;94.20;;;;;;4949923;29;20196;-88
2023/08/19 16:41:00;;;;;;;4.28;1.58;;;29.00;99.90;;;;;;4954210;29;20204;-88
2023/08/19 16:43:27;;;;;;;4.43;1.52;;;29.00;54.80;;;;;;4924578;29;20239;-87
2023/08/19 16:45:57;;;;;;;4.13;1.80;;;28.60;99.90;;;;;;4920971;29;20181;-88
2023/08/19 16:48:24;;;;;;;2.85;1.48;;;28.40;99.90;;;;;;4924178;29;20284;-88
2023/08/19 16:50:54;;;;;;;2.97;1.25;;;28.40;99.90;;;;;;4926104;29;20647;-88
2023/08/19 16:53:21;;;;;;;4.85;1.50;;;28.40;99.90;;;;;;4909590;29;20303;-89
2023/08/19 16:55:58;;;;;;;3.47;1.88;;;28.50;99.90;;;;;;4920555;29;20316;-85
2023/08/19 16:58:24;;;;;;;3.42;1.80;;;28.40;99.90;;;;;;4919769;29;20176;-89
2023/08/19 17:01:05;;;;;;;3.33;1.60;;;28.30;99.90;;;;;;4919088;29;20216;-87
2023/08/19 17:03:31;;;;;;;3.72;1.45;;;28.40;99.90;;;;;;4926154;29;20180;-86
2023/08/19 17:06:06;;;;;;;6.15;1.90;;;28.50;99.90;;;;;;4941989;28;20244;-85
2023/08/19 17:08:32;;;;;;;3.45;1.50;;;29.00;99.90;;;;;;4926528;29;20641;-86
2023/08/19 17:10:59;;;;;;;2.60;1.50;;;29.70;1.00;;;;;;4918884;29;20688;-88
2023/08/19 17:13:27;;;;;;;3.85;1.65;;;30.40;1.00;;;;;;4924378;29;20263;-85
2023/08/19 17:15:56;;;;;;;4.88;1.77;;;31.70;99.90;;;;;;4919183;29;20181;-85
2023/08/19 17:18:22;;;;;;;5.63;1.60;;;32.30;1.00;;;;;;4922247;29;20213;-87
2023/08/19 17:20:58;;;;;;;3.08;1.75;;;32.30;1.00;;;;;;4919800;29;20601;-90
2023/08/19 17:23:26;;;;;;;2.65;1.50;;;32.30;99.90;;;;;;4922158;29;20180;-87
2023/08/19 17:25:52;;;;;;;5.13;1.42;;;32.40;99.90;;;;;;4922064;29;20177;-91
2023/08/19 17:28:18;;;;;;;6.30;2.40;;;32.70;1.00;;;;;;4937714;29;20172;-87
2023/08/19 17:30:44;;;;;;;5.78;2.60;;;32.90;1.00;;;;;;4921341;29;20177;-88
2023/08/19 17:33:11;;;;;;;4.13;1.75;;;32.60;1.00;;;;;;4918579;29;20181;-88
2023/08/19 17:35:38;;;;;;;3.40;1.80;;;31.50;99.90;;;;;;4921449;29;20185;-86
2023/08/19 17:38:05;;;;;;;4.43;1.90;;;31.40;66.40;;;;;;4935981;29;20173;-87
2023/08/19 17:40:35;;;;;;;3.45;1.90;;;30.90;99.90;;;;;;4918245;29;20212;-88
2023/08/19 17:43:02;;;;;;;3.03;1.88;;;30.20;99.90;;;;;;4920762;29;20177;-86
2023/08/19 17:45:28;;;;;;;4.25;2.33;;;29.90;99.90;;;;;;4918837;29;20255;-87
2023/08/19 17:47:53;;;;;;;4.05;2.15;;;29.60;99.90;;;;;;4918716;29;20653;-85
2023/08/19 17:50:19;;;;;;;5.75;2.97;;;29.50;1.00;;;;;;4918692;29;20193;-86
2023/08/19 17:52:45;;;;;;;3.92;1.85;;;29.40;1.00;;;;;;4918155;29;20200;-86
2023/08/19 17:55:12;;;;;;;4.00;1.85;;;29.40;1.00;;;;;;4919663;29;20173;-86
2023/08/19 17:57:37;;;;;;;4.05;1.83;;;29.30;1.00;;;;;;4921168;29;20173;-87
2023/08/19 18:00:05;;;;;;;4.13;1.60;;;29.30;1.00;;;;;;4921857;29;20204;-86
2023/08/19 18:02:30;;;;;;;5.50;2.22;;;29.40;1.00;;;;;;4923797;29;20232;-86
2023/08/19 18:04:59;;;;;;;4.45;1.60;;;29.80;1.00;;;;;;4926053;29;20180;-88
2023/08/19 18:07:25;;;;;;;3.55;2.05;;;30.30;1.00;;;;;;4923827;29;20552;-85
2023/08/19 18:09:52;;;;;;;3.88;2.28;;;31.10;99.90;;;;;;4922721;29;20240;-87
2023/08/19 18:12:18;;;;;;;3.38;1.80;;;32.00;1.00;;;;;;4922126;29;20508;-85
2023/08/19 18:14:44;;;;;;;2.97;1.60;;;32.60;99.90;;;;;;4922734;29;20532;-86
2023/08/19 18:17:10;;;;;;;3.95;1.63;;;32.80;99.90;;;;;;4923312;29;20215;-85
2023/08/19 18:19:36;;;;;;;3.05;1.40;;;32.60;1.00;;;;;;4921925;29;20200;-86
2023/08/19 18:22:03;;;;;;;4.32;1.50;;;32.90;99.90;;;;;;4924231;29;20276;-85
2023/08/19 18:24:31;;;;;;;3.22;2.13;;;32.90;1.00;;;;;;4925608;29;20319;-86
2023/08/19 18:26:57;;;;;;;5.68;3.13;;;32.60;99.90;;;;;;4923633;29;20184;-85
2023/08/19 18:29:25;;;;;;;5.53;2.45;;;32.40;1.00;;;;;;4924047;29;20208;-86
2023/08/19 18:31:56;;;;;;;3.80;2.70;;;32.30;99.90;;;;;;4921914;29;20173;-85
2023/08/19 18:34:22;;;;;;;6.35;2.88;;;32.00;99.90;;;;;;4921153;29;20180;-86
2023/08/19 18:36:48;;;;;;;6.10;3.53;;;31.70;99.90;;;;;;4921026;29;20200;-86
2023/08/19 18:39:13;;;;;;;6.28;2.60;;;31.20;30.50;;;;;;4921480;29;20252;-85
2023/08/19 18:41:39;;;;;;;4.05;2.33;;;30.60;99.90;;;;;;4921034;29;20208;-87
2023/08/19 18:44:05;;;;;;;4.25;2.85;;;30.30;1.00;;;;;;4921769;29;20177;-87
2023/08/19 18:46:30;;;;;;;4.13;2.30;;;30.00;99.90;;;;;;4920657;29;20494;-87
2023/08/19 18:48:56;;;;;;;7.22;3.40;;;29.80;99.90;;;;;;4921995;29;20180;-84
2023/08/19 18:51:22;;;;;;;3.95;2.40;;;29.70;1.00;;;;;;4922010;29;20181;-88
2023/08/19 18:53:48;;;;;;;10.70;2.67;;;29.60;1.00;;;;;;4922500;29;20226;-88
2023/08/19 18:56:13;;;;;;;10.93;2.33;;;29.50;1.00;;;;;;4922214;29;20271;-87
2023/08/19 18:58:39;;;;;;;3.88;2.35;;;29.50;1.00;;;;;;4939916;29;20173;-87
2023/08/19 19:01:05;;;;;;;7.45;2.33;;;29.40;1.00;;;;;;4921675;29;20232;-89
2023/08/19 19:03:32;;;;;;;3.03;1.90;;;29.30;1.00;;;;;;4922084;29;20181;-87
2023/08/19 19:05:58;;;;;;;4.20;2.45;;;28.70;6.30;;;;;;4938122;29;20184;-88
2023/08/19 19:08:24;;;;;;;4.28;2.40;;;28.50;99.90;;;;;;4921461;29;20181;-87
2023/08/19 19:10:50;;;;;;;4.45;2.25;;;28.50;99.90;;;;;;4921247;29;20177;-87
2023/08/19 19:13:15;;;;;;;6.13;3.10;;;28.50;99.90;;;;;;4920153;29;20173;-87
2023/08/19 19:15:41;;;;;;;6.57;2.63;;;28.50;99.90;;;;;;4920987;29;20588;-87
2023/08/19 19:18:07;;;;;;;5.10;2.45;;;28.50;99.90;;;;;;4920272;29;20719;-85
2023/08/19 19:20:32;;;;;;;4.30;2.35;;;28.40;99.90;;;;;;4919867;29;20701;-85
2023/08/19 19:22:58;;;;;;;5.03;2.58;;;28.40;99.90;;;;;;4919059;29;20652;-86
2023/08/19 19:25:25;;;;;;;4.25;2.60;;;28.30;99.90;;;;;;4918419;29;20193;-84
2023/08/19 19:27:51;;;;;;;4.45;2.42;;;28.20;99.90;;;;;;4919537;29;20205;-86
2023/08/19 19:30:18;;;;;;;3.70;2.40;;;28.10;99.90;;;;;;4935629;29;20548;-85
2023/08/19 19:32:46;;;;;;;7.82;2.90;;;28.10;99.90;;;;;;4937462;29;20652;-85
2023/08/19 19:35:14;;;;;;;5.78;2.95;;;27.90;99.90;;;;;;4926846;29;20177;-85
2023/08/19 19:37:40;;;;;;;5.65;3.17;;;27.70;99.90;;;;;;4950279;29;20180;-87
2023/08/19 19:40:07;;;;;;;7.75;6.07;;;27.50;1.00;;;;;;4944160;29;20212;-87
2023/08/19 19:42:32;;;;;;;6.88;3.53;;;27.00;1.00;;;;;;4922441;29;20204;-87
2023/08/19 19:45:00;;;;;;;6.60;3.72;;;26.10;1.00;;;;;;4920855;29;20191;-88
2023/08/19 19:47:27;;;;;;;8.60;3.03;;;25.40;1.00;;;;;;4921728;29;20188;-87
2023/08/19 19:49:53;;;;;;;7.33;2.97;;;24.40;1.00;;;;;;4922109;29;20268;-88
2023/08/19 19:52:19;;;;;;;9.10;3.53;;;23.90;1.00;;;;;;4920796;29;20208;-88
2023/08/19 19:54:48;;;;;;;6.80;3.50;;;23.70;2.20;;;;;;4920849;29;20200;-87
2023/08/19 19:57:14;;;;;;;9.50;3.03;;;23.50;6.90;;;;;;4920312;29;20173;-86
2023/08/19 19:59:40;;;;;;;7.40;2.87;;;23.20;12.50;;;;;;4899664;29;20243;-90
2023/08/19 20:02:07;;;;;;;11.57;3.60;;;23.00;16.60;;;;;;4916568;29;20239;-89
2023/08/19 20:04:33;;;;;;;7.17;2.80;;;22.90;16.90;;;;;;4918532;29;20169;-89
2023/08/19 20:06:59;;;;;;;8.17;3.43;;;22.80;16.40;;;;;;4928068;29;20626;-87
2023/08/19 20:09:25;;;;;;;9.67;3.10;;;22.70;19.20;;;;;;4925588;29;20261;-91
2023/08/19 20:11:51;;;;;;;7.33;2.50;;;22.60;20.20;;;;;;4924827;29;20219;-92
2023/08/19 20:14:17;;;;;;;7.13;2.43;;;22.40;21.10;;;;;;4927989;29;20212;-88
2023/08/19 20:16:43;;;;;;;9.97;3.10;;;22.20;26.20;;;;;;4932277;29;20235;-90
2023/08/19 20:19:13;;;;;;;10.67;3.00;;;22.20;27.90;;;;;;4936766;29;20210;-89
2023/08/19 20:21:41;;;;;;;10.07;2.77;;;22.10;26.50;;;;;;4935053;29;20199;-89
2023/08/19 20:24:09;;;;;;;12.13;3.30;;;22.00;28.80;;;;;;4931631;29;20202;-90
2023/08/19 20:26:36;;;;;;;9.60;3.33;;;21.90;30.00;;;;;;4928025;29;20183;-85
2023/08/19 20:29:03;;;;;;;10.73;3.43;;;21.80;31.90;;;;;;4923724;29;20180;-85
2023/08/19 20:31:32;;;;;;;11.60;3.40;;;21.80;33.60;;;;;;4927722;29;20186;-88
2023/08/19 20:34:00;;;;;;;11.10;3.20;;;21.90;31.60;;;;;;4917800;29;20182;-90
2023/08/19 20:36:30;;;;;;;10.67;3.40;;;21.80;34.70;;;;;;4920068;29;20197;-88
2023/08/19 20:38:55;;;;;;;9.53;3.23;;;21.80;36.10;;;;;;4930498;29;20198;-86
2023/08/19 20:41:21;;;;;;;9.33;2.83;;;21.60;40.80;;;;;;4926741;29;20313;-87
2023/08/19 20:43:47;;;;;;;11.30;3.40;;;21.70;43.30;;;;;;4931039;29;20258;-87
2023/08/19 20:46:12;;;;;;;10.07;3.33;;;21.60;44.10;;;;;;4922207;29;20199;-85
2023/08/19 20:48:38;;;;;;;11.20;3.83;;;21.70;44.00;;;;;;4917115;29;20687;-86
2023/08/19 20:51:04;;;;;;;13.43;3.60;;;21.80;42.10;;;;;;4917095;29;20690;-87
2023/08/19 20:53:31;;;;;;;10.33;3.57;;;21.90;41.30;;;;;;4918410;29;20189;-87
2023/08/19 20:55:57;;;;;;;9.60;3.33;;;21.90;38.50;;;;;;4918412;29;20199;-85
2023/08/19 20:58:22;;;;;;;12.60;3.60;;;21.80;40.30;;;;;;4920037;29;20700;-83
2023/08/19 21:00:49;;;;;;;11.57;2.90;;;21.80;40.00;;;;;;4919775;29;20317;-86
2023/08/19 21:03:15;;;;;;;12.37;2.93;;;21.60;44.40;;;;;;4935765;29;20188;-85
2023/08/19 21:05:41;;;;;;;12.90;3.57;;;21.60;46.40;;;;;;4929798;29;20285;-85
2023/08/19 21:08:08;;;;;;;12.33;3.50;;;21.60;48.00;;;;;;4940673;28;20187;-85
2023/08/19 21:10:34;;;;;;;10.40;3.57;;;21.60;47.90;;;;;;4927780;29;20245;-85
2023/08/19 21:13:00;;;;;;;14.10;3.20;;;21.60;46.30;;;;;;4917953;29;20223;-85
2023/08/19 21:15:27;;;;;;;12.37;3.50;;;21.70;46.30;;;;;;4918734;29;20184;-85
2023/08/19 21:17:52;;;;;;;10.63;3.03;;;21.60;46.40;;;;;;4918701;29;20221;-85
2023/08/19 21:20:18;;;;;;;13.37;3.40;;;21.60;47.60;;;;;;4917180;29;20215;-85
2023/08/19 21:22:45;;;;;;;9.97;2.60;;;21.60;46.60;;;;;;4920596;29;20551;-84
2023/08/19 21:25:10;;;;;;;10.77;3.27;;;21.70;45.80;;;;;;4921285;29;20245;-86
2023/08/19 21:27:36;;;;;;;9.93;3.23;;;21.60;45.00;;;;;;4918426;29;20580;-85
2023/08/19 21:30:02;;;;;;;10.83;3.50;;;21.60;46.90;;;;;;4918183;29;20648;-85
2023/08/19 21:32:28;;;;;;;10.10;3.00;;;21.70;46.30;;;;;;4918634;29;20208;-87
2023/08/19 21:34:53;;;;;;;12.80;3.80;;;21.70;45.00;;;;;;4920785;29;20547;-87
2023/08/19 21:37:24;;;;;;;11.87;3.43;;;21.70;45.00;;;;;;4937989;29;20175;-87
2023/08/19 21:39:49;;;;;;;13.97;4.10;;;21.70;41.40;;;;;;4938793;29;20247;-87
2023/08/19 21:42:15;;;;;;;13.00;4.33;;;21.80;44.90;;;;;;4922401;29;20178;-88
2023/08/19 21:44:41;;;;;;;15.73;3.90;;;21.80;37.60;;;;;;4922608;29;20662;-88
2023/08/19 21:47:06;;;;;;;11.67;3.47;;;21.80;35.40;;;;;;4921256;29;20592;-88
2023/08/19 21:49:32;;;;;;;12.47;3.37;;;21.80;37.70;;;;;;4909604;29;20191;-87
2023/08/19 21:51:58;;;;;;;10.37;2.90;;;21.70;39.30;;;;;;4938591;29;20184;-88
2023/08/19 21:54:24;;;;;;;11.90;3.10;;;21.60;42.20;;;;;;4921977;29;20183;-88
2023/08/19 21:56:49;;;;;;;9.57;2.67;;;21.50;43.80;;;;;;4921810;29;20226;-88
2023/08/19 21:59:15;;;;;;;11.00;3.40;;;21.40;43.60;;;;;;4944523;29;20637;-87
2023/08/19 22:01:41;;;;;;;14.93;3.87;;;21.40;46.70;;;;;;4930049;29;20194;-88
2023/08/19 22:04:07;;;;;;;15.87;3.50;;;21.40;45.90;;;;;;4930969;29;20185;-87
2023/08/19 22:06:33;;;;;;;16.13;3.63;;;21.40;47.00;;;;;;4928418;29;20612;-89
2023/08/19 22:08:59;;;;;;;10.83;3.30;;;21.30;49.40;;;;;;4925315;29;20624;-88
2023/08/19 22:11:25;;;;;;;13.90;3.93;;;21.20;49.40;;;;;;4923640;29;20550;-88
2023/08/19 22:13:51;;;;;;;13.77;3.33;;;21.20;52.10;;;;;;4926319;29;20191;-88
2023/08/19 22:16:17;;;;;;;12.47;3.27;;;21.20;53.00;;;;;;4929021;29;20230;-88
2023/08/19 22:18:43;;;;;;;13.67;3.67;;;21.20;52.30;;;;;;4930417;29;20224;-89
2023/08/19 22:21:08;;;;;;;11.60;3.77;;;21.20;51.30;;;;;;4924037;29;20592;-88
2023/08/19 22:23:35;;;;;;;12.10;3.30;;;21.20;50.60;;;;;;4924175;29;20179;-88
2023/08/19 22:26:01;;;;;;;11.53;3.50;;;21.20;50.60;;;;;;4925154;29;20184;-87
2023/08/19 22:28:27;;;;;;;11.20;3.10;;;21.20;49.80;;;;;;4924140;29;20183;-87
2023/08/19 22:30:53;;;;;;;10.53;3.10;;;21.20;50.40;;;;;;4922632;29;20212;-87
2023/08/19 22:33:19;;;;;;;10.10;3.53;;;21.10;50.80;;;;;;4921512;29;20177;-88
2023/08/19 22:35:45;;;;;;;14.17;3.77;;;21.20;50.10;;;;;;4922834;29;20181;-87
2023/08/19 22:38:11;;;;;;;11.57;3.13;;;21.20;46.60;;;;;;4939945;29;20171;-88
2023/08/19 22:40:37;;;;;;;9.77;2.87;;;21.10;45.60;;;;;;4925175;29;20221;-88
2023/08/19 22:43:03;;;;;;;15.03;3.63;;;21.00;48.10;;;;;;4924110;29;20185;-88
2023/08/19 22:45:29;;;;;;;10.07;3.67;;;21.00;52.00;;;;;;4938980;29;20174;-88
2023/08/19 22:47:55;;;;;;;12.17;3.23;;;21.10;49.20;;;;;;4923127;29;20191;-88
2023/08/19 22:50:21;;;;;;;9.33;3.47;;;21.20;46.30;;;;;;4921860;29;20691;-88
2023/08/19 22:52:47;;;;;;;10.87;3.17;;;21.20;46.40;;;;;;4926801;29;20195;-86
2023/08/19 22:55:13;;;;;;;14.33;3.23;;;21.40;40.70;;;;;;4906553;29;20656;-88
2023/08/19 22:57:39;;;;;;;12.40;3.10;;;21.40;39.60;;;;;;4923889;29;20187;-87
2023/08/19 23:00:05;;;;;;;13.83;3.80;;;21.40;38.20;;;;;;4925102;29;20214;-85
2023/08/19 23:02:31;;;;;;;11.60;3.20;;;21.40;39.60;;;;;;4922886;29;20201;-86
2023/08/19 23:04:57;;;;;;;12.50;3.70;;;21.40;37.10;;;;;;4921386;29;20648;-86
2023/08/19 23:07:24;;;;;;;12.93;3.10;;;21.40;32.10;;;;;;4931384;29;20187;-86
2023/08/19 23:09:49;;;;;;;8.50;3.13;;;21.40;31.60;;;;;;4928090;29;20654;-86
2023/08/19 23:12:15;;;;;;;14.70;3.23;;;21.30;31.90;;;;;;4923637;29;20182;-86
2023/08/19 23:14:41;;;;;;;10.90;3.37;;;21.20;38.20;;;;;;4924378;29;20197;-87
2023/08/19 23:17:06;;;;;;;13.03;3.33;;;21.20;40.60;;;;;;4922019;29;20511;-86
2023/08/19 23:19:32;;;;;;;12.40;3.40;;;21.20;37.80;;;;;;4924144;29;20308;-86
2023/08/19 23:21:58;;;;;;;9.67;2.93;;;21.40;37.00;;;;;;4920039;29;20204;-86
2023/08/19 23:24:24;;;;;;;10.77;3.50;;;21.40;33.80;;;;;;4919962;29;20464;-86
2023/08/19 23:26:49;;;;;;;13.73;3.37;;;21.40;33.00;;;;;;4920558;29;20658;-86
2023/08/19 23:29:15;;;;;;;11.80;3.40;;;21.40;37.00;;;;;;4919294;29;20591;-86
2023/08/19 23:31:41;;;;;;;9.87;2.87;;;21.50;35.50;;;;;;4919907;29;20516;-87
2023/08/19 23:34:07;;;;;;;12.57;3.50;;;21.50;31.80;;;;;;4920053;29;20655;-86
2023/08/19 23:36:32;;;;;;;15.87;3.20;;;21.50;29.70;;;;;;4937525;29;20671;-87
2023/08/19 23:38:58;;;;;;;11.70;3.30;;;21.60;27.00;;;;;;4919935;29;20186;-86
2023/08/19 23:41:24;;;;;;;11.07;2.80;;;21.60;24.90;;;;;;4920068;29;20573;-86
2023/08/19 23:43:49;;;;;;;11.93;3.10;;;21.70;24.00;;;;;;4920381;29;20183;-86
2023/08/19 23:46:15;;;;;;;10.20;3.33;;;21.80;22.50;;;;;;4920296;29;20196;-86
2023/08/19 23:48:41;;;;;;;9.83;3.00;;;21.80;19.80;;;;;;4918897;29;20180;-86
2023/08/19 23:51:11;;;;;;;10.33;3.00;;;21.80;18.00;;;;;;4920179;29;20173;-87
2023/08/19 23:53:39;;;;;;;10.23;2.83;;;21.80;16.10;;;;;;4918685;29;20279;-86
2023/08/19 23:56:05;;;;;;;12.63;3.23;;;21.80;15.40;;;;;;4921497;29;20173;-86
2023/08/19 23:58:31;;;;;;;14.00;3.67;;;22.00;13.50;;;;;;4920533;29;20217;-86
